createdAt,value
2016-12-13T00:00:31.534Z,-3.37
2016-12-13T00:01:32.153Z,-3.36
2016-12-13T00:02:31.851Z,-3.37
2016-12-13T00:03:31.845Z,-3.3
2016-12-13T00:04:31.837Z,-3.29
2016-12-13T00:05:31.845Z,-3.17
2016-12-13T00:06:31.978Z,-3.25
2016-12-13T00:07:31.849Z,-3.23
2016-12-13T00:08:31.822Z,-3.23
2016-12-13T00:09:31.818Z,-3.27
2016-12-13T00:10:31.486Z,-3.2
2016-12-13T00:11:31.626Z,-3.19
2016-12-13T00:12:31.798Z,-3.22
2016-12-13T00:13:31.478Z,-3.12
2016-12-13T00:14:31.466Z,-3.11
2016-12-13T00:15:31.458Z,-3.02
2016-12-13T00:16:31.926Z,-3.07
2016-12-13T00:17:31.774Z,-3.01
2016-12-13T00:18:31.770Z,-2.99
2016-12-13T00:19:31.770Z,-3.04
2016-12-13T00:20:31.758Z,-3.01
2016-12-13T00:21:32.002Z,-3.04
2016-12-13T00:22:31.754Z,-3.09
2016-12-13T00:23:31.751Z,-3.08
2016-12-13T00:24:31.742Z,-3.22
2016-12-13T00:25:31.415Z,-3.19
2016-12-13T00:26:31.731Z,-3.23
2016-12-13T00:27:31.727Z,-3.22
2016-12-13T00:28:31.726Z,-3.26
2016-12-13T00:29:31.715Z,-3.33
2016-12-13T00:30:31.714Z,-3.32
2016-12-13T00:31:31.383Z,-3.44
2016-12-13T00:32:31.703Z,-3.43
2016-12-13T00:33:31.695Z,-3.46
2016-12-13T00:34:31.691Z,-3.41
2016-12-13T00:35:31.687Z,-3.48
2016-12-13T00:36:31.683Z,-3.46
2016-12-13T00:37:31.675Z,-3.4
2016-12-13T00:38:31.347Z,-3.48
2016-12-13T00:39:31.671Z,-3.38
2016-12-13T00:40:31.366Z,-3.37
2016-12-13T00:41:31.660Z,-3.5
2016-12-13T00:42:31.328Z,-3.5
2016-12-13T00:43:31.656Z,-3.48
2016-12-13T00:44:31.652Z,-3.61
2016-12-13T00:45:31.635Z,-3.47
2016-12-13T00:46:31.308Z,-3.48
2016-12-13T00:47:31.304Z,-3.56
2016-12-13T00:48:33.036Z,-3.55
2016-12-13T00:49:31.620Z,-3.56
2016-12-13T00:50:31.616Z,-3.58
2016-12-13T00:51:31.612Z,-3.61
2016-12-13T00:52:31.604Z,-3.55
2016-12-13T00:53:31.596Z,-3.51
2016-12-13T00:54:31.268Z,-3.61
2016-12-13T00:55:31.588Z,-3.5
2016-12-13T00:56:31.584Z,-3.5
2016-12-13T00:57:31.252Z,-3.56
2016-12-13T00:58:31.248Z,-3.5
2016-12-13T00:59:31.576Z,-3.58
2016-12-13T01:00:31.564Z,-3.58
2016-12-13T01:01:31.241Z,-3.55
2016-12-13T01:02:30.904Z,-3.58
2016-12-13T01:03:31.548Z,-3.66
2016-12-13T01:04:31.553Z,-3.75
2016-12-13T01:05:31.541Z,-3.75
2016-12-13T01:06:31.537Z,-3.68
2016-12-13T01:07:31.529Z,-3.68
2016-12-13T01:08:31.529Z,-3.71
2016-12-13T01:09:31.521Z,-3.69
2016-12-13T01:10:31.517Z,-3.75
2016-12-13T01:11:31.509Z,-3.78
2016-12-13T01:12:31.186Z,-3.83
2016-12-13T01:13:31.509Z,-3.9
2016-12-13T01:14:31.165Z,-3.94
2016-12-13T01:15:31.497Z,-3.77
2016-12-13T01:16:31.489Z,-3.81
2016-12-13T01:17:31.485Z,-3.8
2016-12-13T01:18:31.473Z,-3.74
2016-12-13T01:19:31.469Z,-3.71
2016-12-13T01:20:31.465Z,-3.74
2016-12-13T01:21:31.465Z,-3.69
2016-12-13T01:22:31.454Z,-3.78
2016-12-13T01:23:31.450Z,-3.74
2016-12-13T01:24:31.449Z,-3.75
2016-12-13T01:25:31.445Z,-3.74
2016-12-13T01:26:31.434Z,-3.85
2016-12-13T01:27:31.430Z,-3.83
2016-12-13T01:28:31.430Z,-3.81
2016-12-13T01:29:31.422Z,-3.77
2016-12-13T01:30:31.418Z,-3.88
2016-12-13T01:31:31.410Z,-3.88
2016-12-13T01:32:31.406Z,-3.95
2016-12-13T01:33:31.402Z,-3.94
2016-12-13T01:34:31.394Z,-3.9
2016-12-13T01:35:31.394Z,-3.91
2016-12-13T01:36:31.391Z,-3.91
2016-12-13T01:37:30.730Z,-4.02
2016-12-13T01:38:31.378Z,-3.91
2016-12-13T01:39:31.374Z,-3.94
2016-12-13T01:40:31.370Z,-3.9
2016-12-13T01:41:31.066Z,-3.94
2016-12-13T01:42:31.354Z,-3.87
2016-12-13T01:43:31.358Z,-3.85
2016-12-13T01:44:31.346Z,-3.87
2016-12-13T01:45:31.018Z,-3.88
2016-12-13T01:46:31.335Z,-3.78
2016-12-13T01:47:31.331Z,-3.8
2016-12-13T01:48:31.003Z,-3.85
2016-12-13T01:49:31.318Z,-3.9
2016-12-13T01:50:31.315Z,-3.88
2016-12-13T01:51:31.315Z,-3.83
2016-12-13T01:52:31.307Z,-3.83
2016-12-13T01:53:31.299Z,-3.9
2016-12-13T01:54:30.979Z,-3.83
2016-12-13T01:55:30.967Z,-4.02
2016-12-13T01:56:30.963Z,-3.96
2016-12-13T01:57:31.279Z,-3.99
2016-12-13T01:58:31.275Z,-3.94
2016-12-13T01:59:31.271Z,-3.9
2016-12-13T02:00:30.943Z,-3.98
2016-12-13T02:01:30.939Z,-3.95
2016-12-13T02:02:31.263Z,-3.96
2016-12-13T02:03:31.251Z,-3.96
2016-12-13T02:04:31.251Z,-4.02
2016-12-13T02:05:31.243Z,-3.91
2016-12-13T02:06:30.911Z,-4.01
2016-12-13T02:07:30.907Z,-3.98
2016-12-13T02:08:31.224Z,-4.05
2016-12-13T02:09:31.223Z,-4.06
2016-12-13T02:10:31.219Z,-4.04
2016-12-13T02:11:31.207Z,-4.06
2016-12-13T02:12:30.880Z,-4.02
2016-12-13T02:13:31.207Z,-4.04
2016-12-13T02:14:31.199Z,-4.16
2016-12-13T02:15:30.864Z,-4.16
2016-12-13T02:16:31.184Z,-4.05
2016-12-13T02:17:31.184Z,-4.19
2016-12-13T02:18:31.175Z,-4.13
2016-12-13T02:19:31.168Z,-4.16
2016-12-13T02:20:31.168Z,-4.2
2016-12-13T02:21:31.160Z,-4.26
2016-12-13T02:22:31.152Z,-4.17
2016-12-13T02:23:31.148Z,-4.27
2016-12-13T02:24:31.144Z,-4.26
2016-12-13T02:25:31.140Z,-4.26
2016-12-13T02:26:31.136Z,-4.31
2016-12-13T02:27:31.128Z,-4.19
2016-12-13T02:28:31.132Z,-4.16
2016-12-13T02:29:31.116Z,-4.19
2016-12-13T02:30:30.788Z,-4.14
2016-12-13T02:31:30.784Z,-4.19
2016-12-13T02:32:31.108Z,-4.12
2016-12-13T02:33:31.096Z,-3.98
2016-12-13T02:34:31.092Z,-4.04
2016-12-13T02:35:31.089Z,-4.04
2016-12-13T02:36:30.764Z,-4.02
2016-12-13T02:37:31.076Z,-3.91
2016-12-13T02:38:31.072Z,-3.83
2016-12-13T02:39:31.069Z,-3.74
2016-12-13T02:40:31.061Z,-3.56
2016-12-13T02:41:31.057Z,-3.43
2016-12-13T02:42:31.053Z,-3.29
2016-12-13T02:43:31.045Z,-3.14
2016-12-13T02:44:30.717Z,-3.05
2016-12-13T02:45:31.037Z,-2.98
2016-12-13T02:46:31.029Z,-2.86
2016-12-13T02:47:31.029Z,-2.84
2016-12-13T02:48:31.025Z,-2.7
2016-12-13T02:49:30.697Z,-2.58
2016-12-13T02:50:31.013Z,-2.48
2016-12-13T02:51:31.005Z,-2.45
2016-12-13T02:52:31.001Z,-2.32
2016-12-13T02:53:30.997Z,-2.26
2016-12-13T02:54:30.993Z,-2.13
2016-12-13T02:55:30.985Z,-2.02
2016-12-13T02:56:30.981Z,-1.94
2016-12-13T02:57:30.977Z,-1.86
2016-12-13T02:58:30.988Z,-1.92
2016-12-13T02:59:30.965Z,-1.79
2016-12-13T03:00:30.965Z,-1.75
2016-12-13T03:01:30.962Z,-1.64
2016-12-13T03:02:30.953Z,-1.54
2016-12-13T03:03:30.621Z,-1.48
2016-12-13T03:04:30.618Z,-1.35
2016-12-13T03:05:30.606Z,-1.38
2016-12-13T03:06:30.605Z,-1.32
2016-12-13T03:07:30.926Z,-1.24
2016-12-13T03:08:30.918Z,-1.18
2016-12-13T03:09:30.918Z,-1.07
2016-12-13T03:10:30.258Z,-1.07
2016-12-13T03:11:30.582Z,-1.04
2016-12-13T03:12:30.898Z,-1.06
2016-12-13T03:13:30.898Z,-0.91
2016-12-13T03:14:30.890Z,-0.87
2016-12-13T03:15:30.558Z,-0.81
2016-12-13T03:16:30.878Z,-0.81
2016-12-13T03:17:30.550Z,-0.77
2016-12-13T03:18:30.870Z,-0.77
2016-12-13T03:19:30.862Z,-0.69
2016-12-13T03:20:30.862Z,-0.77
2016-12-13T03:21:30.854Z,-0.7
2016-12-13T03:22:30.850Z,-0.66
2016-12-13T03:23:30.846Z,-0.67
2016-12-13T03:24:30.838Z,-0.66
2016-12-13T03:25:30.186Z,-0.63
2016-12-13T03:26:30.828Z,-0.62
2016-12-13T03:27:30.826Z,-0.59
2016-12-13T03:28:30.818Z,-0.56
2016-12-13T03:29:30.814Z,-0.59
2016-12-13T03:30:30.810Z,-0.49
2016-12-13T03:31:30.810Z,-0.49
2016-12-13T03:32:30.802Z,-0.45
2016-12-13T03:33:30.794Z,-0.54
2016-12-13T03:34:30.790Z,-0.46
2016-12-13T03:35:30.934Z,-0.45
2016-12-13T03:36:30.455Z,-0.41
2016-12-13T03:37:30.775Z,-0.33
2016-12-13T03:38:30.119Z,-0.41
2016-12-13T03:39:30.442Z,-0.51
2016-12-13T03:40:30.758Z,-0.31
2016-12-13T03:41:30.759Z,-0.35
2016-12-13T03:42:30.750Z,-0.44
2016-12-13T03:43:30.742Z,-0.41
2016-12-13T03:44:30.738Z,-0.36
2016-12-13T03:45:30.734Z,-0.31
2016-12-13T03:46:30.731Z,-0.27
2016-12-13T03:47:30.723Z,-0.35
2016-12-13T03:48:30.721Z,-0.38
2016-12-13T03:49:30.718Z,-0.24
2016-12-13T03:50:30.710Z,-0.31
2016-12-13T03:51:30.703Z,-0.26
2016-12-13T03:52:30.374Z,-0.24
2016-12-13T03:53:30.694Z,-0.18
2016-12-13T03:54:30.362Z,-0.13
2016-12-13T03:55:30.694Z,-0.06
2016-12-13T03:56:30.686Z,-0.1
2016-12-13T03:57:30.674Z,-0.17
2016-12-13T03:58:30.675Z,-0.12
2016-12-13T03:59:30.670Z,-0.07
2016-12-13T04:00:30.335Z,-0.12
2016-12-13T04:01:30.668Z,-0.06
2016-12-13T04:02:30.331Z,-0.06
2016-12-13T04:03:30.322Z,-0.03
2016-12-13T04:04:30.638Z,0.05
2016-12-13T04:05:30.634Z,0.08
2016-12-13T04:06:30.635Z,0.05
2016-12-13T04:07:30.646Z,0.05
2016-12-13T04:08:30.634Z,-0.02
2016-12-13T04:09:30.618Z,0.02
2016-12-13T04:10:29.962Z,0.05
2016-12-13T04:11:30.611Z,0
2016-12-13T04:12:30.278Z,0.06
2016-12-13T04:13:30.598Z,0.06
2016-12-13T04:14:30.590Z,0.06
2016-12-13T04:15:30.587Z,-0.03
2016-12-13T04:16:30.258Z,-0.02
2016-12-13T04:17:30.582Z,0
2016-12-13T04:18:30.570Z,0.08
2016-12-13T04:19:30.566Z,0.06
2016-12-13T04:20:30.562Z,0.02
2016-12-13T04:21:30.558Z,0
2016-12-13T04:22:30.554Z,0
2016-12-13T04:23:30.550Z,0.08
2016-12-13T04:24:30.542Z,0.09
2016-12-13T04:25:30.538Z,0.02
2016-12-13T04:26:30.538Z,0.13
2016-12-13T04:27:30.530Z,0.11
2016-12-13T04:28:30.530Z,0.08
2016-12-13T04:29:30.522Z,0.12
2016-12-13T04:30:30.518Z,0.13
2016-12-13T04:31:30.514Z,0.16
2016-12-13T04:32:30.506Z,0.13
2016-12-13T04:33:30.502Z,0.19
2016-12-13T04:34:30.494Z,0.18
2016-12-13T04:35:30.490Z,0.13
2016-12-13T04:36:30.486Z,0.18
2016-12-13T04:37:30.158Z,0.18
2016-12-13T04:38:30.478Z,0.2
2016-12-13T04:39:30.474Z,0.2
2016-12-13T04:40:30.470Z,0.19
2016-12-13T04:41:30.462Z,0.19
2016-12-13T04:42:30.458Z,0.19
2016-12-13T04:43:30.458Z,0.19
2016-12-13T04:44:30.459Z,0.26
2016-12-13T04:45:30.119Z,0.2
2016-12-13T04:46:30.438Z,0.23
2016-12-13T04:47:30.435Z,0.2
2016-12-13T04:48:29.782Z,0.16
2016-12-13T04:49:30.426Z,0.2
2016-12-13T04:50:30.098Z,0.24
2016-12-13T04:51:30.423Z,0.23
2016-12-13T04:52:30.415Z,0.2
2016-12-13T04:53:30.410Z,0.19
2016-12-13T04:54:30.404Z,0.26
2016-12-13T04:55:30.402Z,0.27
2016-12-13T04:56:30.395Z,0.3
2016-12-13T04:57:30.067Z,0.24
2016-12-13T04:58:30.386Z,0.27
2016-12-13T04:59:30.380Z,0.36
2016-12-13T05:00:30.375Z,0.39
2016-12-13T05:01:30.371Z,0.3
2016-12-13T05:02:30.366Z,0.34
2016-12-13T05:03:30.363Z,0.37
2016-12-13T05:04:30.359Z,0.33
2016-12-13T05:05:30.351Z,0.42
2016-12-13T05:06:30.023Z,0.42
2016-12-13T05:07:30.343Z,0.33
2016-12-13T05:08:30.343Z,0.36
2016-12-13T05:09:30.335Z,0.45
2016-12-13T05:10:30.327Z,0.39
2016-12-13T05:11:30.003Z,0.39
2016-12-13T05:12:30.323Z,0.37
2016-12-13T05:13:29.991Z,0.33
2016-12-13T05:14:29.995Z,0.42
2016-12-13T05:15:30.310Z,0.42
2016-12-13T05:16:30.299Z,0.37
2016-12-13T05:17:30.295Z,0.31
2016-12-13T05:18:29.967Z,0.31
2016-12-13T05:19:30.287Z,0.27
2016-12-13T05:20:30.283Z,0.39
2016-12-13T05:21:30.283Z,0.42
2016-12-13T05:22:30.271Z,0.33
2016-12-13T05:23:30.279Z,0.4
2016-12-13T05:24:29.935Z,0.42
2016-12-13T05:25:30.259Z,0.42
2016-12-13T05:26:30.265Z,0.36
2016-12-13T05:27:30.283Z,0.37
2016-12-13T05:28:30.247Z,0.42
2016-12-13T05:29:29.919Z,0.37
2016-12-13T05:30:29.915Z,0.34
2016-12-13T05:31:30.231Z,0.45
2016-12-13T05:32:30.227Z,0.4
2016-12-13T05:33:30.223Z,0.42
2016-12-13T05:34:30.220Z,0.51
2016-12-13T05:35:30.216Z,0.47
2016-12-13T05:36:29.888Z,0.48
2016-12-13T05:37:30.204Z,0.52
2016-12-13T05:38:30.200Z,0.51
2016-12-13T05:39:30.200Z,0.58
2016-12-13T05:40:30.196Z,0.51
2016-12-13T05:41:30.190Z,0.52
2016-12-13T05:42:30.185Z,0.59
2016-12-13T05:43:30.184Z,0.56
2016-12-13T05:44:30.180Z,0.63
2016-12-13T05:45:30.168Z,0.68
2016-12-13T05:46:30.168Z,0.66
2016-12-13T05:47:30.469Z,0.68
2016-12-13T05:48:29.832Z,0.67
2016-12-13T05:49:30.156Z,0.59
2016-12-13T05:50:30.144Z,0.68
2016-12-13T05:51:30.144Z,0.71
2016-12-13T05:52:29.812Z,0.71
2016-12-13T05:53:30.132Z,0.7
2016-12-13T05:54:29.805Z,0.68
2016-12-13T05:55:30.128Z,0.68
2016-12-13T05:56:30.124Z,0.66
2016-12-13T05:57:30.116Z,0.68
2016-12-13T05:58:30.109Z,0.64
2016-12-13T05:59:30.113Z,0.63
2016-12-13T06:00:30.108Z,0.68
2016-12-13T06:01:30.104Z,0.64
2016-12-13T06:02:30.093Z,0.61
2016-12-13T06:03:30.101Z,0.64
2016-12-13T06:04:29.437Z,0.63
2016-12-13T06:05:30.082Z,0.66
2016-12-13T06:06:30.073Z,0.64
2016-12-13T06:07:30.069Z,0.59
2016-12-13T06:08:30.064Z,0.61
2016-12-13T06:09:30.061Z,0.68
2016-12-13T06:10:30.056Z,0.7
2016-12-13T06:11:29.733Z,0.61
2016-12-13T06:12:29.729Z,0.71
2016-12-13T06:13:30.045Z,0.7
2016-12-13T06:14:30.041Z,0.68
2016-12-13T06:15:29.709Z,0.68
2016-12-13T06:16:30.033Z,0.73
2016-12-13T06:17:30.029Z,0.67
2016-12-13T06:18:30.021Z,0.73
2016-12-13T06:19:30.017Z,0.73
2016-12-13T06:20:30.013Z,0.74
2016-12-13T06:21:30.009Z,0.73
2016-12-13T06:22:30.005Z,0.73
2016-12-13T06:23:29.997Z,0.66
2016-12-13T06:24:29.993Z,0.71
2016-12-13T06:25:29.989Z,0.78
2016-12-13T06:26:29.985Z,0.73
2016-12-13T06:27:29.990Z,0.81
2016-12-13T06:28:29.977Z,0.78
2016-12-13T06:29:29.645Z,0.85
2016-12-13T06:30:29.957Z,0.73
2016-12-13T06:31:29.957Z,0.76
2016-12-13T06:32:29.953Z,0.85
2016-12-13T06:33:29.629Z,0.74
2016-12-13T06:34:29.941Z,0.73
2016-12-13T06:35:29.937Z,0.82
2016-12-13T06:36:29.610Z,0.81
2016-12-13T06:37:29.603Z,0.7
2016-12-13T06:38:29.937Z,0.73
2016-12-13T06:39:29.593Z,0.71
2016-12-13T06:40:29.258Z,0.74
2016-12-13T06:41:29.917Z,0.73
2016-12-13T06:42:29.910Z,0.63
2016-12-13T06:43:29.578Z,0.58
2016-12-13T06:44:29.915Z,0.66
2016-12-13T06:45:29.570Z,0.68
2016-12-13T06:46:29.242Z,0.77
2016-12-13T06:47:29.562Z,0.71
2016-12-13T06:48:29.582Z,0.73
2016-12-13T06:49:29.878Z,0.76
2016-12-13T06:50:29.546Z,0.73
2016-12-13T06:51:29.538Z,0.81
2016-12-13T06:52:29.854Z,0.76
2016-12-13T06:53:29.534Z,0.7
2016-12-13T06:54:29.866Z,0.76
2016-12-13T06:55:29.854Z,0.74
2016-12-13T06:56:29.522Z,0.76
2016-12-13T06:57:29.514Z,0.7
2016-12-13T06:58:29.834Z,0.76
2016-12-13T06:59:29.835Z,0.78
2016-12-13T07:00:29.830Z,0.77
2016-12-13T07:01:29.506Z,0.91
2016-12-13T07:02:29.822Z,0.88
2016-12-13T07:03:29.822Z,0.85
2016-12-13T07:04:29.478Z,0.89
2016-12-13T07:05:29.475Z,0.94
2016-12-13T07:06:29.806Z,0.94
2016-12-13T07:07:29.474Z,0.95
2016-12-13T07:08:29.791Z,0.88
2016-12-13T07:09:29.939Z,0.91
2016-12-13T07:10:29.787Z,0.84
2016-12-13T07:11:29.783Z,0.89
2016-12-13T07:12:29.455Z,1
2016-12-13T07:13:29.455Z,1.03
2016-12-13T07:14:29.432Z,1.03
2016-12-13T07:15:29.759Z,0.99
2016-12-13T07:16:29.759Z,1.06
2016-12-13T07:17:29.755Z,1.04
2016-12-13T07:18:29.430Z,1.06
2016-12-13T07:19:29.415Z,1.22
2016-12-13T07:20:29.739Z,1.25
2016-12-13T07:21:29.411Z,1.18
2016-12-13T07:22:29.404Z,1.27
2016-12-13T07:23:29.399Z,1.34
2016-12-13T07:24:29.395Z,1.28
2016-12-13T07:25:29.719Z,1.39
2016-12-13T07:26:29.391Z,1.4
2016-12-13T07:27:29.384Z,1.43
2016-12-13T07:28:29.379Z,1.46
2016-12-13T07:29:29.376Z,1.46
2016-12-13T07:30:29.368Z,1.4
2016-12-13T07:31:29.688Z,1.46
2016-12-13T07:32:29.028Z,1.49
2016-12-13T07:33:29.684Z,1.48
2016-12-13T07:34:29.676Z,1.43
2016-12-13T07:35:29.680Z,1.49
2016-12-13T07:36:29.349Z,1.42
2016-12-13T07:37:29.668Z,1.45
2016-12-13T07:38:29.340Z,1.46
2016-12-13T07:39:29.324Z,1.5
2016-12-13T07:40:29.656Z,1.48
2016-12-13T07:41:29.651Z,1.53
2016-12-13T07:42:28.988Z,1.48
2016-12-13T07:43:29.640Z,1.48
2016-12-13T07:44:29.628Z,1.58
2016-12-13T07:45:29.640Z,1.57
2016-12-13T07:46:29.632Z,1.57
2016-12-13T07:47:29.624Z,1.56
2016-12-13T07:48:28.960Z,1.61
2016-12-13T07:49:29.284Z,1.53
2016-12-13T07:50:29.609Z,1.58
2016-12-13T07:51:29.273Z,1.56
2016-12-13T07:52:29.597Z,1.64
2016-12-13T07:53:29.265Z,1.6
2016-12-13T07:54:29.593Z,1.56
2016-12-13T07:55:29.253Z,1.7
2016-12-13T07:56:28.929Z,1.63
2016-12-13T07:57:29.585Z,1.52
2016-12-13T07:58:29.253Z,1.61
2016-12-13T07:59:29.249Z,1.57
2016-12-13T08:00:29.566Z,1.53
2016-12-13T08:01:29.233Z,1.75
2016-12-13T08:02:28.901Z,1.6
2016-12-13T08:03:29.220Z,1.64
2016-12-13T08:04:29.553Z,1.66
2016-12-13T08:05:29.537Z,1.61
2016-12-13T08:06:29.213Z,1.64
2016-12-13T08:07:29.209Z,1.64
2016-12-13T08:08:29.530Z,1.6
2016-12-13T08:09:29.525Z,1.6
2016-12-13T08:10:29.189Z,1.61
2016-12-13T08:11:29.193Z,1.71
2016-12-13T08:12:29.189Z,1.74
2016-12-13T08:13:29.504Z,1.78
2016-12-13T08:14:29.177Z,1.76
2016-12-13T08:15:29.505Z,1.82
2016-12-13T08:16:29.497Z,1.84
2016-12-13T08:17:29.489Z,1.88
2016-12-13T08:18:29.480Z,1.89
2016-12-13T08:19:29.189Z,2.04
2016-12-13T08:20:29.140Z,2.05
2016-12-13T08:21:29.472Z,2.08
2016-12-13T08:22:29.145Z,2.08
2016-12-13T08:23:29.136Z,2.04
2016-12-13T08:24:29.132Z,2.16
2016-12-13T08:25:29.452Z,2.14
2016-12-13T08:26:28.796Z,2.14
2016-12-13T08:27:29.445Z,2.14
2016-12-13T08:28:29.441Z,2.15
2016-12-13T08:29:29.113Z,2.14
2016-12-13T08:30:29.104Z,2.18
2016-12-13T08:31:29.126Z,2.16
2016-12-13T08:32:29.109Z,2.22
2016-12-13T08:33:29.081Z,2.16
2016-12-13T08:34:28.753Z,2.22
2016-12-13T08:35:29.077Z,2.32
2016-12-13T08:36:29.081Z,2.25
2016-12-13T08:37:29.077Z,2.21
2016-12-13T08:38:29.401Z,2.22
2016-12-13T08:39:29.069Z,2.36
2016-12-13T08:40:29.061Z,2.26
2016-12-13T08:41:29.061Z,2.3
2016-12-13T08:42:29.057Z,2.32
2016-12-13T08:43:29.055Z,2.34
2016-12-13T08:44:29.049Z,2.36
2016-12-13T08:45:29.377Z,2.39
2016-12-13T08:46:29.361Z,2.43
2016-12-13T08:47:29.361Z,2.34
2016-12-13T08:48:29.353Z,2.36
2016-12-13T08:49:29.361Z,2.28
2016-12-13T08:50:29.022Z,2.33
2016-12-13T08:51:29.022Z,2.36
2016-12-13T08:52:29.017Z,2.33
2016-12-13T08:53:29.337Z,2.39
2016-12-13T08:54:29.002Z,2.37
2016-12-13T08:55:29.002Z,2.39
2016-12-13T08:56:28.990Z,2.4
2016-12-13T08:57:28.998Z,2.4
2016-12-13T08:58:28.990Z,2.51
2016-12-13T08:59:28.990Z,2.46
2016-12-13T09:00:29.310Z,2.55
2016-12-13T09:01:28.982Z,2.59
2016-12-13T09:02:28.973Z,2.59
2016-12-13T09:03:29.294Z,2.44
2016-12-13T09:04:28.958Z,2.51
2016-12-13T09:05:28.959Z,2.58
2016-12-13T09:06:28.951Z,2.58
2016-12-13T09:07:29.286Z,2.61
2016-12-13T09:08:29.282Z,2.64
2016-12-13T09:09:29.278Z,2.54
2016-12-13T09:10:28.942Z,2.65
2016-12-13T09:11:28.950Z,2.62
2016-12-13T09:12:28.930Z,2.7
2016-12-13T09:13:29.263Z,2.62
2016-12-13T09:14:28.929Z,2.68
2016-12-13T09:15:28.915Z,2.64
2016-12-13T09:16:29.246Z,2.62
2016-12-13T09:17:28.915Z,2.64
2016-12-13T09:18:28.915Z,2.82
2016-12-13T09:19:29.227Z,2.7
2016-12-13T09:20:29.238Z,2.72
2016-12-13T09:21:29.227Z,2.85
2016-12-13T09:22:28.899Z,2.75
2016-12-13T09:23:28.890Z,2.79
2016-12-13T09:24:29.219Z,2.9
2016-12-13T09:25:29.215Z,2.82
2016-12-13T09:26:28.880Z,2.85
2016-12-13T09:27:29.191Z,2.72
2016-12-13T09:28:28.872Z,2.79
2016-12-13T09:29:28.863Z,2.76
2016-12-13T09:30:28.855Z,2.77
2016-12-13T09:31:28.524Z,2.61
2016-12-13T09:32:28.851Z,2.65
2016-12-13T09:33:29.172Z,2.68
2016-12-13T09:34:28.843Z,2.76
2016-12-13T09:35:28.847Z,2.88
2016-12-13T09:36:30.580Z,2.82
2016-12-13T09:37:29.160Z,2.79
2016-12-13T09:38:29.160Z,2.9
2016-12-13T09:39:28.820Z,2.94
2016-12-13T09:40:28.828Z,2.98
2016-12-13T09:41:28.816Z,2.98
2016-12-13T09:42:28.812Z,3
2016-12-13T09:43:29.132Z,3.05
2016-12-13T09:44:29.140Z,3.11
2016-12-13T09:45:29.128Z,3.03
2016-12-13T09:46:29.132Z,3.16
2016-12-13T09:47:29.124Z,3.16
2016-12-13T09:48:28.792Z,3.24
2016-12-13T09:49:28.788Z,3.26
2016-12-13T09:50:28.780Z,3.24
2016-12-13T09:51:28.780Z,3.26
2016-12-13T09:52:29.100Z,3.3
2016-12-13T09:53:29.104Z,3.43
2016-12-13T09:54:28.764Z,3.52
2016-12-13T09:55:28.444Z,3.55
2016-12-13T09:56:28.756Z,3.49
2016-12-13T09:57:28.764Z,3.49
2016-12-13T09:58:29.076Z,3.56
2016-12-13T09:59:28.752Z,3.52
2016-12-13T10:00:29.077Z,3.48
2016-12-13T10:01:33.192Z,3.46
2016-12-13T10:02:29.065Z,3.52
2016-12-13T10:03:29.056Z,3.61
2016-12-13T10:04:51.908Z,3.76
2016-12-13T10:05:28.721Z,3.73
2016-12-13T10:06:28.396Z,3.86
2016-12-13T10:07:29.042Z,3.94
2016-12-13T10:08:29.041Z,3.96
2016-12-13T10:09:28.713Z,3.94
2016-12-13T10:10:28.705Z,3.95
2016-12-13T10:11:29.029Z,3.95
2016-12-13T10:12:29.025Z,3.95
2016-12-13T10:13:29.029Z,4.03
2016-12-13T10:14:28.689Z,4.09
2016-12-13T10:15:29.021Z,4.13
2016-12-13T10:16:28.357Z,4.13
2016-12-13T10:17:28.685Z,4.09
2016-12-13T10:18:28.677Z,4.16
2016-12-13T10:19:28.997Z,4.28
2016-12-13T10:20:28.669Z,4.24
2016-12-13T10:21:28.686Z,4.27
2016-12-13T10:22:28.661Z,4.27
2016-12-13T10:23:28.993Z,4.38
2016-12-13T10:24:28.986Z,4.34
2016-12-13T10:25:28.650Z,4.31
2016-12-13T10:26:28.645Z,4.3
2016-12-13T10:27:28.966Z,4.38
2016-12-13T10:28:28.642Z,4.36
2016-12-13T10:29:28.638Z,4.45
2016-12-13T10:30:28.662Z,4.39
2016-12-13T10:31:28.958Z,4.34
2016-12-13T10:32:28.630Z,4.38
2016-12-13T10:33:28.617Z,4.42
2016-12-13T10:34:28.642Z,4.43
2016-12-13T10:35:28.614Z,4.34
2016-12-13T10:36:28.607Z,4.38
2016-12-13T10:37:28.609Z,4.24
2016-12-13T10:38:28.930Z,4.25
2016-12-13T10:39:28.934Z,4.25
2016-12-13T10:40:28.598Z,4.22
2016-12-13T10:41:28.918Z,4.27
2016-12-13T10:42:28.919Z,4.39
2016-12-13T10:43:28.910Z,4.49
2016-12-13T10:44:28.910Z,4.39
2016-12-13T10:45:28.911Z,4.4
2016-12-13T10:46:28.903Z,4.38
2016-12-13T10:47:28.571Z,4.38
2016-12-13T10:48:28.562Z,4.24
2016-12-13T10:49:28.571Z,4.21
2016-12-13T10:50:28.891Z,4.14
2016-12-13T10:51:28.883Z,4.1
2016-12-13T10:52:28.891Z,4.02
2016-12-13T10:53:28.875Z,4.12
2016-12-13T10:54:28.547Z,4.03
2016-12-13T10:55:28.871Z,4.06
2016-12-13T10:56:28.527Z,3.99
2016-12-13T10:57:28.547Z,4
2016-12-13T10:58:28.863Z,4.07
2016-12-13T10:59:28.527Z,4.07
2016-12-13T11:00:28.523Z,4.21
2016-12-13T11:01:28.523Z,4.24
2016-12-13T11:02:28.516Z,4.32
2016-12-13T11:03:29.144Z,4.42
2016-12-13T11:04:28.839Z,4.39
2016-12-13T11:05:28.180Z,4.46
2016-12-13T11:06:28.511Z,4.57
2016-12-13T11:07:28.508Z,4.66
2016-12-13T11:08:28.496Z,4.68
2016-12-13T11:09:28.172Z,4.7
2016-12-13T11:10:28.496Z,4.74
2016-12-13T11:11:28.488Z,4.66
2016-12-13T11:12:28.492Z,4.75
2016-12-13T11:13:28.804Z,4.7
2016-12-13T11:14:28.812Z,4.75
2016-12-13T11:15:28.469Z,4.68
2016-12-13T11:16:28.796Z,4.74
2016-12-13T11:17:28.801Z,4.68
2016-12-13T11:18:28.464Z,4.71
2016-12-13T11:19:28.452Z,4.74
2016-12-13T11:20:28.788Z,4.75
2016-12-13T11:21:28.125Z,4.66
2016-12-13T11:22:28.777Z,4.7
2016-12-13T11:23:28.113Z,4.74
2016-12-13T11:24:28.437Z,4.64
2016-12-13T11:25:28.441Z,4.74
2016-12-13T11:26:28.761Z,4.63
2016-12-13T11:27:28.769Z,4.63
2016-12-13T11:28:28.453Z,4.6
2016-12-13T11:29:28.425Z,4.74
2016-12-13T11:30:28.429Z,4.68
2016-12-13T11:31:28.413Z,4.76
2016-12-13T11:32:28.413Z,4.79
2016-12-13T11:33:28.413Z,4.76
2016-12-13T11:34:28.405Z,4.92
2016-12-13T11:35:28.733Z,5.01
2016-12-13T11:36:28.733Z,4.94
2016-12-13T11:37:28.725Z,4.9
2016-12-13T11:38:28.645Z,4.89
2016-12-13T11:39:28.710Z,4.92
2016-12-13T11:40:28.386Z,4.84
2016-12-13T11:41:28.394Z,4.82
2016-12-13T11:42:28.710Z,4.78
2016-12-13T11:43:28.858Z,4.82
2016-12-13T11:44:28.054Z,4.82
2016-12-13T11:45:28.698Z,4.71
2016-12-13T11:46:28.370Z,4.63
2016-12-13T11:47:28.374Z,4.66
2016-12-13T11:48:28.694Z,4.61
2016-12-13T11:49:28.358Z,4.53
2016-12-13T11:50:28.026Z,4.34
2016-12-13T11:51:28.351Z,4.34
2016-12-13T11:52:28.674Z,4.36
2016-12-13T11:53:28.347Z,4.39
2016-12-13T11:54:28.346Z,4.36
2016-12-13T11:55:28.667Z,4.45
2016-12-13T11:56:28.668Z,4.48
2016-12-13T11:57:28.330Z,4.42
2016-12-13T11:58:28.654Z,4.39
2016-12-13T11:59:28.663Z,4.46
2016-12-13T12:00:27.991Z,4.56
2016-12-13T12:01:28.315Z,4.57
2016-12-13T12:02:28.315Z,4.53
2016-12-13T12:03:28.639Z,4.57
2016-12-13T12:04:28.311Z,4.63
2016-12-13T12:05:28.307Z,4.63
2016-12-13T12:06:28.311Z,4.61
2016-12-13T12:07:27.971Z,4.68
2016-12-13T12:08:28.299Z,4.63
2016-12-13T12:09:28.623Z,4.74
2016-12-13T12:10:28.291Z,4.66
2016-12-13T12:11:28.612Z,4.79
2016-12-13T12:12:28.275Z,4.76
2016-12-13T12:13:28.280Z,4.75
2016-12-13T12:14:28.607Z,4.87
2016-12-13T12:15:28.268Z,5
2016-12-13T12:16:28.279Z,4.92
2016-12-13T12:17:28.267Z,4.87
2016-12-13T12:18:28.263Z,4.98
2016-12-13T12:19:27.936Z,4.95
2016-12-13T12:20:28.580Z,4.95
2016-12-13T12:21:28.576Z,4.92
2016-12-13T12:22:28.580Z,4.9
2016-12-13T12:23:28.243Z,4.95
2016-12-13T12:24:28.268Z,4.9
2016-12-13T12:25:28.568Z,4.75
2016-12-13T12:26:28.236Z,4.75
2016-12-13T12:27:28.557Z,4.66
2016-12-13T12:28:28.560Z,4.63
2016-12-13T12:29:28.552Z,4.6
2016-12-13T12:30:28.220Z,4.58
2016-12-13T12:31:28.225Z,4.46
2016-12-13T12:32:28.212Z,4.48
2016-12-13T12:33:28.217Z,4.56
2016-12-13T12:34:27.885Z,4.58
2016-12-13T12:35:28.193Z,4.53
2016-12-13T12:36:28.200Z,4.6
2016-12-13T12:37:28.202Z,4.5
2016-12-13T12:38:28.197Z,4.49
2016-12-13T12:39:28.517Z,4.48
2016-12-13T12:40:28.517Z,4.52
2016-12-13T12:41:28.513Z,4.46
2016-12-13T12:42:28.185Z,4.49
2016-12-13T12:43:28.185Z,4.56
2016-12-13T12:44:28.181Z,4.6
2016-12-13T12:45:28.501Z,4.57
2016-12-13T12:46:28.497Z,4.63
2016-12-13T12:47:28.489Z,4.61
2016-12-13T12:48:28.165Z,4.56
2016-12-13T12:49:28.493Z,4.53
2016-12-13T12:50:28.485Z,4.49
2016-12-13T12:51:28.481Z,4.48
2016-12-13T12:52:28.481Z,4.52
2016-12-13T12:53:27.817Z,4.46
2016-12-13T12:54:28.145Z,4.61
2016-12-13T12:55:28.149Z,4.64
2016-12-13T12:56:28.145Z,4.67
2016-12-13T12:57:28.133Z,4.78
2016-12-13T12:58:28.129Z,4.86
2016-12-13T12:59:28.449Z,5.01
2016-12-13T13:00:28.125Z,5.04
2016-12-13T13:01:28.125Z,5.08
2016-12-13T13:02:28.113Z,5.13
2016-12-13T13:03:28.113Z,5.05
2016-12-13T13:04:28.437Z,5.1
2016-12-13T13:05:28.117Z,5.15
2016-12-13T13:06:28.105Z,5.05
2016-12-13T13:07:27.769Z,5.08
2016-12-13T13:08:28.093Z,5.12
2016-12-13T13:09:27.769Z,5.1
2016-12-13T13:10:28.085Z,5.13
2016-12-13T13:11:28.090Z,5.23
2016-12-13T13:12:28.417Z,5.13
2016-12-13T13:13:28.089Z,5.12